Terminal Aerodrome Forecast
Issued by NWS Blacksburg, VA

Current Version | Previous Version | Graphics & Text | Print | Product List | Glossary On
Versions: 1 2 3 4 5 6 7 8 9 10 11 12 13 14 15 16 17 18 19 20 21
000
FTUS41 KRNK 201010 AAB
TAFBLF
TAF AMD
KBLF 201010Z 2010/2106 29009G19KT P6SM OVC015
     FM201100 29010KT P6SM SCT025
     FM201400 26008KT P6SM SKC
     FM202200 25005KT P6SM SCT250=

USA.gov is the U.S. government's official web portal to all federal, state and local government web resources and services.